createdAt,value
2022-07-28T00:00:16.035Z,16.79
2022-07-28T00:02:16.325Z,16.75
2022-07-28T00:04:16.830Z,16.71
2022-07-28T00:07:33.540Z,17.57
2022-07-28T00:09:33.676Z,17.09
2022-07-28T00:11:33.740Z,16.77
2022-07-28T00:13:33.881Z,16.57
2022-07-28T00:15:34.316Z,16.44
2022-07-28T00:17:34.088Z,16.36
2022-07-28T00:19:34.206Z,16.30
2022-07-28T00:21:34.337Z,16.25
2022-07-28T00:23:39.629Z,16.21
2022-07-28T00:25:35.589Z,16.18
2022-07-28T00:27:34.692Z,16.16
2022-07-28T00:29:42.602Z,16.15
2022-07-28T00:31:36.068Z,16.14
2022-07-28T00:33:35.090Z,16.12
2022-07-28T00:35:35.188Z,16.10
2022-07-28T00:37:35.280Z,16.08
2022-07-28T00:39:35.377Z,16.06
2022-07-28T00:41:35.528Z,16.04
2022-07-28T00:43:35.668Z,16.02
2022-07-28T00:45:35.760Z,15.99
2022-07-28T00:47:35.929Z,15.98
2022-07-28T00:49:35.994Z,15.96
2022-07-28T00:51:36.114Z,15.94
2022-07-28T00:53:36.284Z,15.93
2022-07-28T00:56:03.034Z,15.91
2022-07-28T00:57:37.549Z,15.90
2022-07-28T00:59:36.653Z,15.89
2022-07-28T01:01:36.974Z,15.87
2022-07-28T01:03:36.933Z,15.86
2022-07-28T01:05:43.906Z,15.84
2022-07-28T01:07:38.169Z,15.83
2022-07-28T01:09:37.296Z,15.81
2022-07-28T01:11:43.101Z,15.80
2022-07-28T01:13:38.512Z,15.78
2022-07-28T01:15:37.886Z,15.75
2022-07-28T01:17:37.805Z,15.72
2022-07-28T01:19:37.905Z,15.68
2022-07-28T01:21:38.021Z,15.65
2022-07-28T01:23:38.181Z,15.61
2022-07-28T01:25:38.301Z,15.58
2022-07-28T01:27:38.431Z,15.54
2022-07-28T01:29:38.542Z,15.51
2022-07-28T01:31:38.791Z,15.47
2022-07-28T01:33:38.836Z,15.44
2022-07-28T01:35:38.882Z,15.40
2022-07-28T01:37:39.041Z,15.37
2022-07-28T01:39:39.104Z,15.34
2022-07-28T01:41:39.240Z,15.31
2022-07-28T01:43:39.367Z,15.28
2022-07-28T01:45:39.485Z,15.27
2022-07-28T01:47:39.637Z,15.26
2022-07-28T01:49:39.752Z,15.26
2022-07-28T01:51:39.863Z,15.26
2022-07-28T01:53:39.960Z,15.28
2022-07-28T01:55:40.138Z,15.29
2022-07-28T01:57:40.246Z,15.30
2022-07-28T01:59:40.376Z,15.31
2022-07-28T02:01:40.532Z,15.31
2022-07-28T02:03:40.597Z,15.30
2022-07-28T02:05:40.724Z,15.29
2022-07-28T02:07:40.879Z,15.27
2022-07-28T02:09:41.004Z,15.26
2022-07-28T02:11:41.118Z,15.24
2022-07-28T02:13:41.252Z,15.21
2022-07-28T02:15:41.387Z,15.18
2022-07-28T02:17:41.505Z,15.14
2022-07-28T02:19:41.615Z,15.10
2022-07-28T02:21:41.700Z,15.06
2022-07-28T02:23:41.878Z,15.02
2022-07-28T02:25:41.940Z,14.98
2022-07-28T02:27:42.076Z,14.93
2022-07-28T02:29:50.662Z,14.89
2022-07-28T02:31:43.325Z,14.85
2022-07-28T02:33:58.870Z,14.82
2022-07-28T02:35:43.627Z,14.80
2022-07-28T02:37:42.697Z,14.78
2022-07-28T02:39:42.877Z,14.78
2022-07-28T02:41:43.944Z,14.79
2022-07-28T02:43:50.607Z,14.79
2022-07-28T02:45:44.270Z,14.80
2022-07-28T02:47:43.344Z,14.80
2022-07-28T02:49:43.470Z,14.79
2022-07-28T02:51:43.545Z,14.78
2022-07-28T02:53:43.695Z,14.77
2022-07-28T02:55:43.854Z,14.75
2022-07-28T02:57:43.915Z,14.73
2022-07-28T02:59:44.035Z,14.70
2022-07-28T03:01:44.205Z,14.68
2022-07-28T03:03:44.310Z,14.65
2022-07-28T03:05:44.429Z,14.63
2022-07-28T03:07:51.227Z,14.60
2022-07-28T03:09:45.657Z,14.57
2022-07-28T03:11:44.756Z,14.53
2022-07-28T03:13:44.858Z,14.49
2022-07-28T03:15:44.969Z,14.46
2022-07-28T03:17:45.073Z,14.42
2022-07-28T03:19:45.213Z,14.39
2022-07-28T03:21:45.382Z,14.36
2022-07-28T03:23:45.459Z,14.32
2022-07-28T03:25:45.648Z,14.29
2022-07-28T03:27:45.822Z,14.27
2022-07-28T03:29:45.991Z,14.24
2022-07-28T03:31:46.070Z,14.22
2022-07-28T03:33:46.107Z,14.20
2022-07-28T03:35:46.239Z,14.17
2022-07-28T03:37:46.364Z,14.15
2022-07-28T03:39:46.505Z,14.13
2022-07-28T03:41:46.665Z,14.11
2022-07-28T03:43:46.715Z,14.09
2022-07-28T03:45:47.186Z,14.07
2022-07-28T03:47:46.944Z,14.06
2022-07-28T03:49:47.089Z,14.06
2022-07-28T03:51:47.252Z,14.06
2022-07-28T03:53:47.351Z,14.07
2022-07-28T03:55:47.516Z,14.09
2022-07-28T03:57:47.606Z,14.11
2022-07-28T03:59:47.708Z,14.13
2022-07-28T04:01:47.892Z,14.15
2022-07-28T04:03:47.888Z,14.18
2022-07-28T04:05:48.038Z,14.20
2022-07-28T04:07:48.144Z,14.22
2022-07-28T04:09:48.225Z,14.25
2022-07-28T04:11:48.336Z,14.27
2022-07-28T04:13:48.434Z,14.28
2022-07-28T04:17:05.014Z,15.34
2022-07-28T04:19:05.036Z,14.87
2022-07-28T04:21:05.145Z,14.57
2022-07-28T04:23:05.321Z,14.41
2022-07-28T04:25:05.435Z,14.32
2022-07-28T04:27:05.537Z,14.27
2022-07-28T04:29:05.629Z,14.25
2022-07-28T04:31:05.847Z,14.25
2022-07-28T04:33:05.917Z,14.25
2022-07-28T04:35:06.015Z,14.28
2022-07-28T04:37:06.147Z,14.30
2022-07-28T04:39:06.240Z,14.33
2022-07-28T04:41:06.391Z,14.36
2022-07-28T04:43:06.494Z,14.39
2022-07-28T04:45:06.624Z,14.42
2022-07-28T04:47:06.775Z,14.43
2022-07-28T04:49:06.934Z,14.45
2022-07-28T04:51:06.994Z,14.46
2022-07-28T04:53:07.181Z,14.47
2022-07-28T04:55:07.256Z,14.48
2022-07-28T04:57:08.247Z,14.50
2022-07-28T04:59:08.583Z,14.52
2022-07-28T05:01:07.733Z,14.55
2022-07-28T05:03:07.850Z,14.58
2022-07-28T05:05:08.084Z,14.62
2022-07-28T05:07:12.535Z,14.66
2022-07-28T05:09:08.278Z,14.69
2022-07-28T05:11:08.355Z,14.73
2022-07-28T05:13:08.509Z,14.76
2022-07-28T05:15:08.682Z,14.80
2022-07-28T05:17:09.135Z,14.84
2022-07-28T05:19:08.949Z,14.90
2022-07-28T05:21:09.100Z,14.95
2022-07-28T05:23:09.216Z,15.02
2022-07-28T05:25:09.401Z,15.09
2022-07-28T05:27:09.504Z,15.17
2022-07-28T05:29:09.688Z,15.27
2022-07-28T05:31:09.782Z,15.37
2022-07-28T05:33:09.889Z,15.47
2022-07-28T05:35:10.096Z,15.59
2022-07-28T05:37:10.194Z,15.72
2022-07-28T05:39:10.356Z,15.86
2022-07-28T05:41:10.464Z,16.01
2022-07-28T05:43:10.635Z,16.17
2022-07-28T05:45:15.956Z,16.33
2022-07-28T05:47:11.889Z,16.48
2022-07-28T05:49:11.120Z,16.60
2022-07-28T05:51:11.205Z,16.72
2022-07-28T05:53:11.340Z,16.85
2022-07-28T05:55:11.450Z,16.98
2022-07-28T05:57:15.393Z,17.10
2022-07-28T05:59:11.725Z,17.17
2022-07-28T06:01:11.981Z,17.21
2022-07-28T06:03:12.005Z,17.26
2022-07-28T06:05:12.141Z,17.29
2022-07-28T06:07:12.280Z,17.34
2022-07-28T06:09:12.418Z,17.43
2022-07-28T06:11:13.040Z,17.56
2022-07-28T06:13:13.657Z,17.73
2022-07-28T06:15:12.830Z,17.91
2022-07-28T06:17:12.985Z,18.11
2022-07-28T06:19:13.076Z,18.33
2022-07-28T06:21:13.213Z,18.57
2022-07-28T06:23:13.342Z,18.80
2022-07-28T06:25:13.471Z,19.03
2022-07-28T06:27:13.588Z,19.27
2022-07-28T06:29:13.692Z,19.58
2022-07-28T06:31:13.886Z,20.49
2022-07-28T06:33:17.172Z,22.72
2022-07-28T06:35:14.062Z,26.17
2022-07-28T06:37:14.193Z,29.86
2022-07-28T06:39:14.338Z,32.98
2022-07-28T06:41:14.487Z,35.53
2022-07-28T06:43:14.760Z,37.75
2022-07-28T06:45:19.536Z,39.75
2022-07-28T06:47:15.949Z,41.41
2022-07-28T06:49:15.406Z,42.84
2022-07-28T06:51:15.116Z,44.01
2022-07-28T06:53:15.210Z,44.86
2022-07-28T06:55:15.356Z,45.48
2022-07-28T06:57:15.465Z,45.89
2022-07-28T06:59:15.960Z,46.21
2022-07-28T07:01:15.800Z,46.62
2022-07-28T07:03:15.811Z,47.08
2022-07-28T07:05:15.891Z,47.49
2022-07-28T07:07:17.266Z,47.63
2022-07-28T07:09:16.195Z,47.54
2022-07-28T07:11:16.342Z,47.32
2022-07-28T07:13:16.437Z,46.95
2022-07-28T07:15:16.623Z,46.51
2022-07-28T07:17:16.720Z,46.11
2022-07-28T07:19:16.869Z,45.74
2022-07-28T07:21:16.960Z,45.43
2022-07-28T07:23:17.062Z,45.20
2022-07-28T07:25:17.298Z,45.08
2022-07-28T07:27:17.392Z,45.16
2022-07-28T07:29:17.453Z,45.38
2022-07-28T07:31:17.627Z,45.56
2022-07-28T07:33:17.778Z,45.67
2022-07-28T07:35:17.909Z,45.73
2022-07-28T07:37:18.658Z,45.68
2022-07-28T07:39:18.225Z,45.57
2022-07-28T07:41:18.350Z,45.41
2022-07-28T07:43:18.472Z,45.12
2022-07-28T07:45:18.595Z,44.59
2022-07-28T07:47:18.778Z,43.82
2022-07-28T07:49:19.017Z,43.00
2022-07-28T07:51:19.059Z,42.27
2022-07-28T07:53:19.181Z,41.65
2022-07-28T07:55:19.341Z,41.16
2022-07-28T07:57:19.476Z,40.72
2022-07-28T07:59:19.601Z,40.30
2022-07-28T08:01:19.764Z,39.85
2022-07-28T08:03:22.484Z,39.44
2022-07-28T08:05:19.978Z,39.14
2022-07-28T08:07:22.025Z,38.94
2022-07-28T08:09:20.237Z,38.90
2022-07-28T08:11:20.410Z,39.02
2022-07-28T08:13:20.543Z,39.31
2022-07-28T08:15:20.716Z,39.70
2022-07-28T08:17:25.233Z,40.07
2022-07-28T08:19:21.973Z,40.46
2022-07-28T08:21:21.102Z,40.90
2022-07-28T08:23:26.074Z,41.21
2022-07-28T08:25:22.325Z,41.50
2022-07-28T08:27:21.409Z,41.85
2022-07-28T08:29:21.589Z,42.16
2022-07-28T08:31:21.973Z,42.42
2022-07-28T08:33:22.065Z,42.61
2022-07-28T08:35:33.014Z,42.64
2022-07-28T08:37:23.346Z,42.49
2022-07-28T08:39:22.309Z,42.32
2022-07-28T08:41:22.423Z,42.17
2022-07-28T08:43:22.598Z,42.02
2022-07-28T08:45:22.671Z,41.88
2022-07-28T08:47:22.798Z,41.76
2022-07-28T08:49:22.981Z,41.69
2022-07-28T08:51:23.182Z,41.69
2022-07-28T08:53:23.216Z,41.72
2022-07-28T08:55:23.456Z,41.75
2022-07-28T08:57:23.506Z,41.70
2022-07-28T08:59:23.667Z,41.49
2022-07-28T09:01:23.769Z,41.23
2022-07-28T09:03:23.955Z,41.05
2022-07-28T09:05:24.037Z,40.95
2022-07-28T09:07:24.158Z,40.86
2022-07-28T09:09:24.290Z,40.76
2022-07-28T09:11:24.389Z,40.69
2022-07-28T09:13:24.507Z,40.64
2022-07-28T09:15:24.608Z,40.62
2022-07-28T09:17:24.746Z,40.62
2022-07-28T09:19:24.930Z,40.63
2022-07-28T09:21:26.053Z,40.68
2022-07-28T09:23:42.215Z,40.77
2022-07-28T09:25:26.352Z,40.86
2022-07-28T09:27:25.436Z,40.91
2022-07-28T09:29:25.628Z,40.95
2022-07-28T09:31:25.732Z,41.06
2022-07-28T09:33:42.148Z,41.21
2022-07-28T09:35:27.027Z,41.38
2022-07-28T09:37:27.652Z,41.54
2022-07-28T09:39:26.183Z,41.69
2022-07-28T09:41:26.376Z,41.85
2022-07-28T09:43:26.446Z,41.99
2022-07-28T09:45:26.597Z,42.13
2022-07-28T09:47:26.810Z,42.24
2022-07-28T09:49:28.915Z,42.29
2022-07-28T09:51:26.969Z,42.34
2022-07-28T09:53:28.455Z,42.39
2022-07-28T09:55:27.416Z,42.42
2022-07-28T09:57:27.677Z,42.42
2022-07-28T09:59:27.685Z,42.41
2022-07-28T10:01:28.601Z,42.44
2022-07-28T10:03:28.859Z,42.54
2022-07-28T10:05:27.964Z,42.72
2022-07-28T10:07:28.163Z,42.92
2022-07-28T10:09:28.158Z,43.09
2022-07-28T10:11:28.343Z,43.22
2022-07-28T10:13:28.669Z,43.30
2022-07-28T10:15:31.121Z,43.37
2022-07-28T10:17:28.766Z,43.47
2022-07-28T10:19:28.885Z,43.61
2022-07-28T10:21:29.114Z,43.75
2022-07-28T10:23:29.142Z,43.82
2022-07-28T10:25:29.270Z,43.83
2022-07-28T10:27:29.403Z,43.80
2022-07-28T10:29:29.544Z,43.66
2022-07-28T10:31:29.702Z,43.45
2022-07-28T10:33:29.795Z,43.18
2022-07-28T10:35:29.924Z,42.92
2022-07-28T10:37:30.129Z,42.79
2022-07-28T10:39:30.183Z,42.80
2022-07-28T10:41:30.310Z,42.89
2022-07-28T10:43:30.520Z,43.07
2022-07-28T10:45:55.117Z,43.19
2022-07-28T10:47:35.794Z,43.22
2022-07-28T10:49:32.300Z,43.31
2022-07-28T10:51:31.001Z,43.49
2022-07-28T10:53:31.127Z,43.72
2022-07-28T10:55:32.273Z,43.92
2022-07-28T10:57:31.435Z,44.06
2022-07-28T10:59:31.532Z,44.14
2022-07-28T11:01:47.568Z,44.01
2022-07-28T11:03:32.891Z,43.66
2022-07-28T11:05:32.076Z,43.51
2022-07-28T11:07:32.082Z,43.69
2022-07-28T11:09:32.173Z,43.84
2022-07-28T11:11:32.341Z,43.93
2022-07-28T11:13:32.989Z,43.94
2022-07-28T11:15:32.771Z,44.01
2022-07-28T11:17:33.470Z,44.14
2022-07-28T11:19:40.651Z,44.24
2022-07-28T11:21:41.174Z,44.03
2022-07-28T11:23:34.223Z,43.31
2022-07-28T11:25:33.321Z,42.53
2022-07-28T11:27:33.536Z,42.04
2022-07-28T11:29:33.586Z,41.74
2022-07-28T11:31:33.774Z,41.68
2022-07-28T11:33:33.834Z,41.67
2022-07-28T11:35:33.950Z,41.25
2022-07-28T11:37:34.095Z,40.43
2022-07-28T11:39:42.808Z,39.51
2022-07-28T11:41:35.352Z,38.80
2022-07-28T11:43:36.082Z,38.60
2022-07-28T11:45:38.443Z,38.72
2022-07-28T11:47:34.870Z,38.87
2022-07-28T11:49:34.940Z,38.95
2022-07-28T11:51:38.834Z,38.92
2022-07-28T11:53:36.188Z,38.92
2022-07-28T11:55:56.016Z,38.98
2022-07-28T11:57:36.432Z,38.87
2022-07-28T11:59:36.493Z,38.48
2022-07-28T12:01:37.040Z,37.96
2022-07-28T12:03:49.276Z,37.40
2022-07-28T12:05:41.642Z,36.85
2022-07-28T12:07:36.103Z,36.34
2022-07-28T12:09:42.246Z,35.86
2022-07-28T12:11:37.861Z,35.42
2022-07-28T12:13:37.340Z,35.04
2022-07-28T12:15:36.512Z,34.74
2022-07-28T12:17:36.635Z,34.53
2022-07-28T12:19:36.748Z,34.42
2022-07-28T12:21:37.022Z,34.43
2022-07-28T12:23:44.273Z,34.52
2022-07-28T12:25:38.032Z,34.65
2022-07-28T12:27:37.641Z,34.82
2022-07-28T12:29:37.342Z,35.15
2022-07-28T12:31:37.502Z,35.62
2022-07-28T12:33:37.553Z,36.07
2022-07-28T12:35:37.695Z,36.27
2022-07-28T12:37:37.884Z,36.28
2022-07-28T12:39:38.017Z,36.42
2022-07-28T12:41:38.108Z,36.50
2022-07-28T12:43:38.305Z,36.35
2022-07-28T12:45:38.386Z,36.14
2022-07-28T12:47:38.458Z,36.11
2022-07-28T12:49:38.573Z,36.27
2022-07-28T12:51:38.836Z,36.45
2022-07-28T12:53:38.865Z,36.51
2022-07-28T12:55:39.235Z,36.58
2022-07-28T12:57:42.126Z,36.78
2022-07-28T12:59:40.207Z,37.04
2022-07-28T13:01:39.457Z,37.31
2022-07-28T13:03:39.534Z,37.45
2022-07-28T13:05:39.610Z,37.39
2022-07-28T13:07:39.660Z,37.26
2022-07-28T13:09:39.761Z,37.30
2022-07-28T13:11:47.166Z,37.56
2022-07-28T13:13:41.033Z,37.92
2022-07-28T13:15:40.186Z,38.20
2022-07-28T13:17:40.234Z,38.34
2022-07-28T13:19:40.326Z,38.39
2022-07-28T13:21:40.554Z,38.39
2022-07-28T13:23:41.555Z,38.23
2022-07-28T13:25:40.739Z,37.90
2022-07-28T13:27:40.777Z,37.52
2022-07-28T13:29:40.947Z,37.16
2022-07-28T13:31:41.088Z,36.91
2022-07-28T13:33:41.165Z,36.74
2022-07-28T13:35:41.348Z,36.54
2022-07-28T13:37:41.424Z,36.30
2022-07-28T13:39:41.577Z,36.04
2022-07-28T13:41:57.131Z,35.82
2022-07-28T13:43:42.891Z,35.68
2022-07-28T13:45:42.998Z,35.60
2022-07-28T13:47:42.096Z,35.54
2022-07-28T13:49:42.253Z,35.48
2022-07-28T13:51:42.337Z,35.40
2022-07-28T13:53:42.536Z,35.30
2022-07-28T13:55:42.672Z,35.16
2022-07-28T13:57:43.144Z,35.02
2022-07-28T13:59:43.899Z,34.86
2022-07-28T14:01:43.011Z,34.71
2022-07-28T14:03:56.032Z,34.54
2022-07-28T14:05:44.217Z,34.36
2022-07-28T14:07:48.504Z,34.17
2022-07-28T14:09:44.451Z,34.01
2022-07-28T14:11:50.136Z,33.90
2022-07-28T14:13:44.656Z,33.84
2022-07-28T14:15:43.763Z,33.86
2022-07-28T14:17:46.040Z,33.99
2022-07-28T14:19:44.049Z,34.14
2022-07-28T14:21:44.212Z,34.20
2022-07-28T14:23:44.371Z,34.18
2022-07-28T14:25:49.602Z,34.12
2022-07-28T14:27:45.579Z,34.05
2022-07-28T14:29:44.859Z,33.93
2022-07-28T14:31:44.878Z,33.79
2022-07-28T14:33:48.371Z,33.62
2022-07-28T14:35:46.149Z,33.45
2022-07-28T14:39:46.387Z,33.13
2022-07-28T14:41:45.425Z,32.98
2022-07-28T14:43:45.571Z,32.84
2022-07-28T14:45:51.446Z,32.72
2022-07-28T14:47:46.956Z,32.58
2022-07-28T14:49:57.686Z,32.45
2022-07-28T14:51:47.139Z,32.31
2022-07-28T14:53:49.920Z,32.18
2022-07-28T14:55:47.324Z,32.07
2022-07-28T14:57:52.441Z,31.97
2022-07-28T14:59:47.955Z,31.88
2022-07-28T15:01:46.847Z,31.80
2022-07-28T15:03:46.899Z,31.72
2022-07-28T15:05:47.025Z,31.66
2022-07-28T15:07:47.388Z,31.59
2022-07-28T15:09:50.430Z,31.54
2022-07-28T15:11:47.615Z,31.47
2022-07-28T15:13:47.562Z,31.40
2022-07-28T15:15:47.722Z,31.33
2022-07-28T15:17:47.748Z,31.25
2022-07-28T15:19:47.909Z,31.18
2022-07-28T15:21:48.254Z,31.12
2022-07-28T15:23:48.235Z,31.07
2022-07-28T15:25:48.331Z,31.03
2022-07-28T15:27:48.426Z,30.99
2022-07-28T15:29:50.406Z,30.96
2022-07-28T15:31:48.758Z,30.92
2022-07-28T15:33:51.680Z,30.88
2022-07-28T15:35:57.980Z,30.84
2022-07-28T15:37:50.176Z,30.80
2022-07-28T15:39:49.274Z,30.76
2022-07-28T15:41:49.316Z,30.71
2022-07-28T15:43:49.776Z,30.64
2022-07-28T15:45:49.660Z,30.55
2022-07-28T15:47:49.737Z,30.47
2022-07-28T15:49:49.796Z,30.38
2022-07-28T15:51:50.090Z,30.30
2022-07-28T15:53:50.344Z,30.23
2022-07-28T15:55:51.436Z,30.16
2022-07-28T15:57:50.403Z,30.10
2022-07-28T15:59:50.959Z,30.04
2022-07-28T16:01:50.675Z,29.99
2022-07-28T16:03:50.760Z,29.95
2022-07-28T16:05:51.177Z,29.93
2022-07-28T16:07:51.077Z,29.92
2022-07-28T16:09:51.198Z,29.91
2022-07-28T16:11:51.317Z,29.90
2022-07-28T16:13:51.589Z,29.88
2022-07-28T16:15:51.691Z,29.86
2022-07-28T16:17:51.762Z,29.83
2022-07-28T16:19:51.985Z,29.78
2022-07-28T16:21:52.042Z,29.74
2022-07-28T16:23:52.180Z,29.69
2022-07-28T16:25:52.633Z,29.64
2022-07-28T16:27:52.493Z,29.59
2022-07-28T16:29:52.618Z,29.53
2022-07-28T16:31:52.831Z,29.48
2022-07-28T16:33:52.904Z,29.43
2022-07-28T16:35:53.873Z,29.36
2022-07-28T16:37:53.154Z,29.29
2022-07-28T16:39:53.277Z,29.21
2022-07-28T16:41:53.446Z,29.12
2022-07-28T16:43:53.532Z,29.03
2022-07-28T16:45:53.669Z,28.93
2022-07-28T16:47:53.879Z,28.85
2022-07-28T16:49:53.921Z,28.77
2022-07-28T16:51:54.061Z,28.70
2022-07-28T16:53:54.220Z,28.61
2022-07-28T16:55:54.379Z,28.53
2022-07-28T16:57:54.505Z,28.45
2022-07-28T16:59:54.572Z,28.37
2022-07-28T17:01:55.148Z,28.29
2022-07-28T17:03:54.953Z,28.21
2022-07-28T17:05:55.020Z,28.14
2022-07-28T17:07:55.120Z,28.06
2022-07-28T17:09:55.330Z,27.99
2022-07-28T17:11:55.933Z,27.92
2022-07-28T17:13:55.600Z,27.86
2022-07-28T17:15:55.779Z,27.80
2022-07-28T17:17:55.878Z,27.75
2022-07-28T17:19:56.033Z,27.70
2022-07-28T17:21:56.126Z,27.66
2022-07-28T17:23:56.313Z,27.62
2022-07-28T17:26:45.678Z,27.57
2022-07-28T17:27:57.590Z,27.53
2022-07-28T17:29:56.745Z,27.48
2022-07-28T17:31:56.961Z,27.44
2022-07-28T17:33:57.028Z,27.39
2022-07-28T17:35:57.226Z,27.34
2022-07-28T17:37:57.302Z,27.29
2022-07-28T17:39:57.528Z,27.24
2022-07-28T17:41:57.629Z,27.20
2022-07-28T17:43:57.823Z,27.15
2022-07-28T17:45:57.840Z,27.10
2022-07-28T17:47:57.974Z,27.05
2022-07-28T17:49:58.181Z,26.99
2022-07-28T17:51:58.257Z,26.93
2022-07-28T17:53:58.331Z,26.87
2022-07-28T17:56:00.268Z,26.80
2022-07-28T17:57:58.579Z,26.72
2022-07-28T17:59:58.694Z,26.65
2022-07-28T18:01:59.069Z,26.57
2022-07-28T18:04:00.918Z,26.49
2022-07-28T18:05:59.140Z,26.41
2022-07-28T18:07:59.454Z,26.33
2022-07-28T18:09:59.275Z,26.26
2022-07-28T18:11:59.575Z,26.19
2022-07-28T18:14:03.808Z,26.11
2022-07-28T18:16:00.668Z,26.04
2022-07-28T18:17:59.805Z,25.97
2022-07-28T18:19:59.878Z,25.90
2022-07-28T18:21:59.982Z,25.83
2022-07-28T18:24:00.118Z,25.77
2022-07-28T18:26:00.221Z,25.71
2022-07-28T18:28:00.326Z,25.66
2022-07-28T18:30:00.422Z,25.61
2022-07-28T18:32:00.538Z,25.56
2022-07-28T18:34:00.654Z,25.51
2022-07-28T18:36:01.320Z,25.45
2022-07-28T18:38:00.918Z,25.39
2022-07-28T18:40:01.046Z,25.33
2022-07-28T18:42:01.083Z,25.27
2022-07-28T18:44:01.255Z,25.21
2022-07-28T18:46:01.385Z,25.16
2022-07-28T18:48:01.489Z,25.11
2022-07-28T18:50:01.549Z,25.06
2022-07-28T18:52:01.675Z,25.01
2022-07-28T18:54:01.809Z,24.96
2022-07-28T18:56:02.017Z,24.91
2022-07-28T18:58:02.069Z,24.86
2022-07-28T19:00:02.176Z,24.82
2022-07-28T19:02:02.717Z,24.77
2022-07-28T19:04:02.428Z,24.72
2022-07-28T19:06:03.496Z,24.66
2022-07-28T19:08:02.714Z,24.61
2022-07-28T19:10:02.840Z,24.56
2022-07-28T19:12:02.988Z,24.51
2022-07-28T19:14:03.098Z,24.46
2022-07-28T19:16:03.295Z,24.41
2022-07-28T19:18:10.166Z,24.37
2022-07-28T19:20:04.445Z,24.33
2022-07-28T19:22:03.554Z,24.29
2022-07-28T19:24:03.704Z,24.25
2022-07-28T19:26:03.828Z,24.21
2022-07-28T19:28:03.905Z,24.16
2022-07-28T19:30:04.029Z,24.12
2022-07-28T19:32:04.183Z,24.07
2022-07-28T19:34:05.262Z,24.02
2022-07-28T19:36:04.440Z,23.97
2022-07-28T19:38:04.572Z,23.93
2022-07-28T19:40:04.688Z,23.89
2022-07-28T19:42:04.980Z,23.85
2022-07-28T19:44:04.968Z,23.81
2022-07-28T19:46:05.139Z,23.77
2022-07-28T19:48:05.235Z,23.73
2022-07-28T19:50:05.319Z,23.70
2022-07-28T19:52:05.405Z,23.66
2022-07-28T19:54:05.554Z,23.63
2022-07-28T19:56:05.686Z,23.59
2022-07-28T19:58:05.768Z,23.56
2022-07-28T20:00:05.893Z,23.53
2022-07-28T20:02:06.041Z,23.50
2022-07-28T20:04:06.174Z,23.47
2022-07-28T20:06:06.264Z,23.44
2022-07-28T20:08:06.525Z,23.42
2022-07-28T20:10:06.672Z,23.39
2022-07-28T20:12:07.703Z,23.37
2022-07-28T20:14:06.755Z,23.35
2022-07-28T20:16:06.784Z,23.34
2022-07-28T20:18:06.931Z,23.34
2022-07-28T20:20:07.088Z,23.33
2022-07-28T20:22:07.195Z,23.33
2022-07-28T20:24:07.284Z,23.32
2022-07-28T20:26:07.414Z,23.32
2022-07-28T20:28:07.535Z,23.30
2022-07-28T20:30:07.691Z,23.28
2022-07-28T20:32:07.823Z,23.24
2022-07-28T20:34:07.976Z,23.21
2022-07-28T20:36:08.081Z,23.17
2022-07-28T20:38:08.178Z,23.14
2022-07-28T20:40:08.320Z,23.10
2022-07-28T20:42:08.436Z,23.06
2022-07-28T20:44:29.328Z,23.02
2022-07-28T20:46:09.774Z,22.96
2022-07-28T20:48:08.813Z,22.91
2022-07-28T20:50:09.900Z,22.85
2022-07-28T20:52:09.063Z,22.80
2022-07-28T20:54:09.169Z,22.75
2022-07-28T20:56:09.312Z,22.71
2022-07-28T20:58:09.466Z,22.68
2022-07-28T21:00:09.602Z,22.66
2022-07-28T21:02:09.845Z,22.64
2022-07-28T21:04:11.364Z,22.63
2022-07-28T21:06:09.908Z,22.61
2022-07-28T21:08:16.102Z,22.60
2022-07-28T21:10:11.154Z,22.58
2022-07-28T21:12:10.266Z,22.56
2022-07-28T21:14:10.380Z,22.54
2022-07-28T21:16:10.633Z,22.52
2022-07-28T21:18:10.695Z,22.50
2022-07-28T21:20:10.788Z,22.49
2022-07-28T21:22:10.906Z,22.47
2022-07-28T21:24:11.054Z,22.45
2022-07-28T21:26:11.153Z,22.43
2022-07-28T21:28:11.277Z,22.41
2022-07-28T21:30:11.392Z,22.40
2022-07-28T21:32:11.535Z,22.39
2022-07-28T21:34:11.881Z,22.38
2022-07-28T21:36:11.787Z,22.37
2022-07-28T21:38:11.910Z,22.36
2022-07-28T21:40:12.090Z,22.35
2022-07-28T21:42:12.175Z,22.34
2022-07-28T21:44:12.317Z,22.33
2022-07-28T21:46:12.532Z,22.32
2022-07-28T21:48:12.584Z,22.32
2022-07-28T21:50:12.734Z,22.32
2022-07-28T21:52:12.892Z,22.33
2022-07-28T21:54:13.370Z,22.34
2022-07-28T21:56:13.120Z,22.35
2022-07-28T21:58:13.236Z,22.36
2022-07-28T22:00:13.349Z,22.36
2022-07-28T22:02:13.503Z,22.36
2022-07-28T22:04:13.972Z,22.34
2022-07-28T22:06:13.735Z,22.31
2022-07-28T22:08:15.831Z,22.27
2022-07-28T22:10:14.154Z,22.23
2022-07-28T22:12:14.062Z,22.19
2022-07-28T22:14:14.557Z,22.15
2022-07-28T22:16:14.325Z,22.12
2022-07-28T22:18:16.834Z,22.09
2022-07-28T22:20:14.526Z,22.05
2022-07-28T22:22:14.678Z,22.02
2022-07-28T22:24:15.040Z,21.99
2022-07-28T22:26:14.948Z,21.95
2022-07-28T22:28:15.053Z,21.92
2022-07-28T22:30:15.222Z,21.88
2022-07-28T22:32:15.303Z,21.85
2022-07-28T22:34:15.714Z,21.81
2022-07-28T22:36:15.509Z,21.78
2022-07-28T22:38:15.685Z,21.74
2022-07-28T22:40:15.790Z,21.70
2022-07-28T22:42:15.911Z,21.65
2022-07-28T22:44:16.322Z,21.59
2022-07-28T22:46:16.196Z,21.53
2022-07-28T22:48:16.288Z,21.48
2022-07-28T22:50:16.454Z,21.43
2022-07-28T22:52:16.531Z,21.38
2022-07-28T22:54:17.087Z,21.34
2022-07-28T22:56:16.839Z,21.30
2022-07-28T22:58:16.927Z,21.27
2022-07-28T23:00:17.089Z,21.25
2022-07-28T23:02:17.162Z,21.23
2022-07-28T23:04:17.698Z,21.22
2022-07-28T23:06:17.740Z,21.22
2022-07-28T23:08:17.509Z,21.22
2022-07-28T23:10:17.645Z,21.21
2022-07-28T23:12:17.858Z,21.21
2022-07-28T23:14:18.138Z,21.20
2022-07-28T23:16:18.100Z,21.18
2022-07-28T23:18:18.165Z,21.17
2022-07-28T23:20:18.333Z,21.15
2022-07-28T23:22:18.450Z,21.13
2022-07-28T23:24:18.848Z,21.12
2022-07-28T23:26:18.696Z,21.11
2022-07-28T23:28:18.809Z,21.11
2022-07-28T23:30:18.941Z,21.10
2022-07-28T23:32:19.129Z,21.10
2022-07-28T23:34:19.449Z,21.10
2022-07-28T23:36:26.542Z,21.10
2022-07-28T23:38:20.449Z,21.10
2022-07-28T23:40:19.591Z,21.10
2022-07-28T23:42:19.737Z,21.10
2022-07-28T23:44:19.846Z,21.10
2022-07-28T23:46:20.083Z,21.09
2022-07-28T23:48:20.159Z,21.08
2022-07-28T23:50:20.395Z,21.08
2022-07-28T23:52:20.397Z,21.08
2022-07-28T23:54:20.580Z,21.08
2022-07-28T23:56:20.678Z,21.08
2022-07-28T23:58:20.774Z,21.08
